Aérodrome :
LOGIN :

S'inscrire | Disclaimer

   EN    FR    IT 

 










Légende :    VFR   VFR Marginal   IFR   IFR Intensif   IFR Très Intensif
Visi : 
Plafond : 
>= 8 km
>= 3000ft
5 à 8 km
1000 à 3000 ft
1500m à 5 km
500 à 1000 ft
800 à 1500m
200 à 500 ft
< 800m
< 200 ft
Symboles :   Orages  Brouillard  Fortes neiges  Fortes précipitations  Vent > 20 kt
SIGMETs :   Divers  Orages  Givrage  Turbulence  Onde Orograph.  Cendres Volcan.







- Altitude de l'aérodrome : 433 ft
- Code IATA : CCF
- Voir les cartes d'approche


LFMK - Carcassonne

DERNIER METAR :
  • 220000Z AUTO 27013KT 9999 SCT017 BKN056 03/M00 Q1020

METARs EXPIRÉS :
  • 212330Z AUTO 28015KT 9999 BKN018 BKN033 OVC056 03/M00 Q1020
  • 212300Z AUTO 27014KT 240V300 9999 OVC017 04/00 Q1020
  • 212230Z AUTO 27013KT 9999 OVC018 04/00 Q1020
  • 212200Z AUTO 27013KT 9999 BKN021 BKN026 OVC035 04/00 Q1020
  • 212130Z AUTO 28013KT 9999 BKN035 OVC054 04/00 Q1020
  • 212100Z AUTO 28014KT 9999 FEW034 OVC054 04/00 Q1020

TAF AMD TAF LFMK
Valide du 21 à 15h jusqu'au 22 à 15h UTC


211400Z 2115/2215 28016KT 9999 SCT035 BKN065
TEMPO 2115/2119 28015G25KT
BECMG 2120/2123 BKN014 BKN040
TEMPO 2123/2202 4000 -SHRA OVC010
BECMG 2209/2211 26005KT SCT050 BKN100
Pas de NOTAMs connus pour ce terrain.



MET'MAP, la Météo Aéronautique d'un coup d'oeil ! - Copyright ORBIFLY Décembre 2007 - Disclaimer

ORBIFLY MET'MAP TEAM :

Programmation & Développement : Alexandra Zaïnal
Conception & Développement : Baudouin d'Aumeries
Co-Programmation & Développement : Marc-Olivier Méhu
Soutien technique & logistique : Manuel Goepfert

Contact : metmap@orbifly.com




SOURCES & CREDITS :

   NOAA